createdAt,value
2019-03-05T00:00:44.466Z,6.00
2019-03-05T00:03:12.431Z,6.00
2019-03-05T00:05:40.401Z,5.90
2019-03-05T00:08:08.273Z,5.80
2019-03-05T00:10:36.207Z,5.80
2019-03-05T00:13:04.147Z,5.80
2019-03-05T00:15:32.398Z,5.80
2019-03-05T00:18:00.271Z,5.80
2019-03-05T00:20:28.222Z,5.90
2019-03-05T00:22:56.172Z,5.90
2019-03-05T00:25:24.033Z,5.90
2019-03-05T00:27:51.893Z,5.80
2019-03-05T00:30:19.759Z,5.80
2019-03-05T00:32:48.004Z,5.80
2019-03-05T00:35:15.971Z,5.90
2019-03-05T00:37:43.894Z,5.90
2019-03-05T00:40:11.794Z,5.90
2019-03-05T00:42:39.680Z,6.00
2019-03-05T00:45:07.740Z,5.90
2019-03-05T00:47:35.681Z,5.90
2019-03-05T00:50:03.575Z,5.90
2019-03-05T00:52:31.422Z,6.00
2019-03-05T00:54:59.287Z,6.00
2019-03-05T00:57:27.200Z,5.90
2019-03-05T00:59:55.055Z,6.00
2019-03-05T01:02:23.022Z,6.00
2019-03-05T01:04:51.081Z,6.00
2019-03-05T01:07:19.223Z,6.00
2019-03-05T01:09:47.881Z,6.00
2019-03-05T01:12:16.307Z,5.90
2019-03-05T01:14:45.077Z,5.90
2019-03-05T01:17:13.025Z,5.90
2019-03-05T01:19:41.001Z,5.90
2019-03-05T01:22:09.000Z,5.90
2019-03-05T01:24:36.856Z,5.90
2019-03-05T01:27:04.794Z,5.90
2019-03-05T01:29:32.636Z,5.90
2019-03-05T01:32:08.606Z,5.90
2019-03-05T01:34:54.236Z,5.90
2019-03-05T01:37:22.787Z,5.90
2019-03-05T01:40:09.294Z,5.90
2019-03-05T01:42:37.251Z,5.90
2019-03-05T01:45:05.232Z,5.80
2019-03-05T01:47:33.114Z,5.80
2019-03-05T01:50:01.130Z,5.80
2019-03-05T01:52:29.086Z,5.80
2019-03-05T01:54:57.116Z,5.80
2019-03-05T01:57:25.090Z,5.90
2019-03-05T01:59:52.968Z,5.80
2019-03-05T02:02:20.858Z,5.80
2019-03-05T02:04:48.753Z,5.80
2019-03-05T02:07:16.705Z,5.80
2019-03-05T02:09:44.675Z,5.70
2019-03-05T02:12:12.906Z,5.70
2019-03-05T02:14:40.767Z,5.70
2019-03-05T02:17:08.711Z,5.70
2019-03-05T02:19:37.529Z,5.70
2019-03-05T02:22:05.476Z,5.70
2019-03-05T02:24:33.422Z,5.60
2019-03-05T02:27:01.408Z,5.60
2019-03-05T02:29:29.438Z,5.50
2019-03-05T02:31:57.399Z,5.50
2019-03-05T02:34:25.250Z,5.50
2019-03-05T02:36:53.173Z,5.50
2019-03-05T02:39:21.054Z,5.50
2019-03-05T02:41:48.913Z,5.60
2019-03-05T02:44:16.760Z,5.60
2019-03-05T02:46:44.641Z,5.70
2019-03-05T02:49:12.488Z,5.70
2019-03-05T02:51:40.348Z,5.70
2019-03-05T02:54:08.217Z,5.70
2019-03-05T02:56:36.148Z,5.70
2019-03-05T02:59:04.006Z,5.70
2019-03-05T03:02:02.885Z,5.70
2019-03-05T03:04:34.598Z,5.70
2019-03-05T03:07:02.606Z,5.60
2019-03-05T03:09:30.635Z,5.60
2019-03-05T03:11:58.595Z,5.50
2019-03-05T03:14:26.551Z,5.50
2019-03-05T03:16:54.414Z,5.50
2019-03-05T03:19:22.354Z,5.50
2019-03-05T03:21:50.293Z,5.50
2019-03-05T03:24:18.231Z,5.50
2019-03-05T03:26:46.085Z,5.60
2019-03-05T03:29:13.945Z,5.50
2019-03-05T03:31:42.148Z,5.50
2019-03-05T03:34:10.006Z,5.40
2019-03-05T03:36:38.389Z,5.40
2019-03-05T03:39:06.425Z,5.40
2019-03-05T03:41:34.630Z,5.30
2019-03-05T03:44:02.494Z,5.20
2019-03-05T03:46:30.934Z,5.20
2019-03-05T03:48:58.806Z,5.20
2019-03-05T03:51:26.665Z,5.20
2019-03-05T03:53:54.574Z,5.20
2019-03-05T03:56:22.596Z,5.20
2019-03-05T03:58:50.509Z,5.20
2019-03-05T04:01:18.955Z,5.20
2019-03-05T04:03:46.802Z,5.10
2019-03-05T04:06:14.701Z,5.10
2019-03-05T04:08:42.718Z,5.10
2019-03-05T04:11:10.615Z,5.00
2019-03-05T04:13:38.531Z,5.00
2019-03-05T04:16:06.494Z,5.00
2019-03-05T04:18:34.426Z,5.00
2019-03-05T04:21:02.321Z,4.90
2019-03-05T04:23:30.224Z,5.00
2019-03-05T04:25:58.175Z,5.00
2019-03-05T04:28:26.027Z,5.00
2019-03-05T04:30:53.937Z,5.10
2019-03-05T04:33:21.865Z,5.10
2019-03-05T04:35:49.802Z,5.10
2019-03-05T04:38:18.065Z,5.10
2019-03-05T04:40:46.106Z,5.20
2019-03-05T04:43:14.048Z,5.30
2019-03-05T04:45:46.713Z,5.30
2019-03-05T04:48:14.590Z,5.40
2019-03-05T04:50:47.110Z,5.40
2019-03-05T04:53:15.085Z,5.40
2019-03-05T04:55:43.033Z,5.40
2019-03-05T04:58:10.922Z,5.40
2019-03-05T05:00:39.740Z,5.40
2019-03-05T05:03:07.729Z,5.40
2019-03-05T05:05:35.598Z,5.50
2019-03-05T05:08:03.848Z,5.40
2019-03-05T05:10:31.820Z,5.50
2019-03-05T05:12:59.669Z,5.50
2019-03-05T05:15:27.547Z,5.50
2019-03-05T05:17:55.507Z,5.50
2019-03-05T05:20:23.892Z,5.50
2019-03-05T05:22:51.719Z,5.50
2019-03-05T05:25:19.652Z,5.60
2019-03-05T05:27:47.500Z,5.60
2019-03-05T05:30:15.369Z,5.60
2019-03-05T05:32:43.285Z,5.50
2019-03-05T05:35:11.251Z,5.50
2019-03-05T05:37:39.104Z,5.50
2019-03-05T05:40:07.239Z,5.50
2019-03-05T05:42:35.102Z,5.40
2019-03-05T05:45:02.997Z,5.50
2019-03-05T05:47:30.876Z,5.50
2019-03-05T05:49:58.823Z,5.50
2019-03-05T05:52:26.686Z,5.50
2019-03-05T05:54:54.666Z,5.50
2019-03-05T05:57:22.629Z,5.40
2019-03-05T05:59:50.494Z,5.50
2019-03-05T06:02:18.348Z,5.40
2019-03-05T06:04:46.211Z,5.40
2019-03-05T06:07:14.087Z,5.30
2019-03-05T06:09:41.937Z,5.30
2019-03-05T06:12:09.799Z,5.40
2019-03-05T06:14:38.336Z,5.50
2019-03-05T06:17:06.238Z,5.50
2019-03-05T06:19:34.089Z,5.50
2019-03-05T06:22:01.975Z,5.60
2019-03-05T06:24:29.904Z,5.60
2019-03-05T06:26:57.784Z,5.60
2019-03-05T06:29:25.658Z,5.60
2019-03-05T06:31:53.598Z,5.60
2019-03-05T06:34:21.562Z,5.50
2019-03-05T06:36:49.404Z,5.50
2019-03-05T06:39:17.258Z,5.60
2019-03-05T06:41:45.124Z,5.60
2019-03-05T06:44:13.017Z,5.60
2019-03-05T06:46:40.954Z,5.60
2019-03-05T06:49:09.323Z,5.60
2019-03-05T06:51:37.260Z,5.50
2019-03-05T06:54:05.103Z,5.60
2019-03-05T06:56:33.077Z,5.60
2019-03-05T06:59:00.922Z,5.60
2019-03-05T07:01:28.882Z,5.60
2019-03-05T07:03:56.750Z,5.60
2019-03-05T07:06:24.735Z,5.60
2019-03-05T07:08:54.231Z,5.60
2019-03-05T07:11:22.112Z,5.60
2019-03-05T07:13:50.081Z,5.60
2019-03-05T07:16:17.949Z,5.60
2019-03-05T07:18:45.963Z,5.70
2019-03-05T07:21:14.381Z,5.70
2019-03-05T07:23:43.129Z,5.70
2019-03-05T07:26:11.276Z,5.70
2019-03-05T07:28:39.159Z,5.70
2019-03-05T07:31:07.022Z,5.80
2019-03-05T07:33:34.913Z,5.90
2019-03-05T07:36:02.913Z,6.00
2019-03-05T07:38:30.867Z,6.00
2019-03-05T07:40:58.771Z,6.10
2019-03-05T07:43:36.165Z,6.20
2019-03-05T07:45:56.292Z,6.20
2019-03-05T07:48:24.204Z,6.20
2019-03-05T07:50:52.632Z,6.30
2019-03-05T07:53:20.496Z,6.40
2019-03-05T07:55:48.454Z,6.40
2019-03-05T07:58:16.940Z,6.40
2019-03-05T08:00:45.831Z,6.30
2019-03-05T08:03:13.954Z,6.20
2019-03-05T08:05:41.896Z,6.20
2019-03-05T08:08:09.749Z,6.20
2019-03-05T08:10:37.577Z,6.20
2019-03-05T08:13:05.481Z,6.20
2019-03-05T08:15:38.658Z,6.20
2019-03-05T08:18:06.549Z,6.30
2019-03-05T08:20:34.392Z,6.30
2019-03-05T08:23:02.351Z,6.30
2019-03-05T08:25:30.218Z,6.20
2019-03-05T08:27:58.078Z,6.20
2019-03-05T08:30:26.029Z,6.20
2019-03-05T08:32:54.945Z,6.20
2019-03-05T08:35:22.890Z,6.20
2019-03-05T08:37:50.899Z,6.20
2019-03-05T08:40:18.955Z,6.20
2019-03-05T08:42:46.918Z,6.20
2019-03-05T08:45:14.901Z,6.20
2019-03-05T08:47:42.844Z,6.20
2019-03-05T08:50:10.699Z,6.20
2019-03-05T08:52:38.543Z,6.20
2019-03-05T08:55:06.398Z,6.20
2019-03-05T08:57:36.179Z,6.20
2019-03-05T09:00:04.193Z,6.20
2019-03-05T09:02:32.050Z,6.10
2019-03-05T09:05:00.039Z,6.10
2019-03-05T09:07:27.900Z,6.10
2019-03-05T09:09:55.729Z,6.10
2019-03-05T09:12:23.619Z,6.00
2019-03-05T09:14:51.575Z,6.00
2019-03-05T09:17:19.490Z,6.00
2019-03-05T09:19:47.330Z,6.00
2019-03-05T09:22:15.188Z,5.90
2019-03-05T09:24:43.040Z,5.90
2019-03-05T09:27:10.873Z,5.80
2019-03-05T09:29:38.823Z,5.80
2019-03-05T09:32:06.683Z,5.70
2019-03-05T09:34:34.571Z,5.60
2019-03-05T09:37:02.382Z,5.60
2019-03-05T09:39:30.230Z,5.60
2019-03-05T09:41:58.078Z,5.60
2019-03-05T09:44:25.941Z,5.50
2019-03-05T09:46:53.910Z,5.50
2019-03-05T09:49:21.795Z,5.60
2019-03-05T09:51:49.636Z,5.60
2019-03-05T09:54:17.572Z,5.60
2019-03-05T09:56:45.473Z,5.50
2019-03-05T09:59:32.670Z,5.60
2019-03-05T10:02:00.625Z,5.60
2019-03-05T10:04:28.469Z,5.60
2019-03-05T10:06:56.403Z,5.50
2019-03-05T10:09:25.975Z,5.50
2019-03-05T10:11:56.784Z,5.50
2019-03-05T10:14:23.575Z,5.50
2019-03-05T10:16:51.468Z,5.50
2019-03-05T10:19:20.219Z,5.50
2019-03-05T10:21:48.164Z,5.50
2019-03-05T10:24:16.096Z,5.40
2019-03-05T10:26:44.013Z,5.40
2019-03-05T10:29:12.268Z,5.30
2019-03-05T10:31:40.194Z,5.30
2019-03-05T10:34:08.210Z,5.30
2019-03-05T10:36:36.122Z,5.30
2019-03-05T10:39:04.058Z,5.30
2019-03-05T10:41:32.006Z,5.20
2019-03-05T10:43:59.970Z,5.10
2019-03-05T10:46:27.931Z,5.10
2019-03-05T10:48:55.807Z,5.10
2019-03-05T10:51:24.467Z,5.10
2019-03-05T10:53:52.333Z,5.10
2019-03-05T10:56:20.187Z,5.00
2019-03-05T10:58:48.041Z,5.10
2019-03-05T11:01:15.973Z,5.10
2019-03-05T11:03:43.996Z,5.10
2019-03-05T11:06:11.955Z,5.10
2019-03-05T11:08:39.913Z,5.10
2019-03-05T11:11:13.604Z,5.10
2019-03-05T11:13:37.491Z,5.10
2019-03-05T11:16:05.364Z,5.20
2019-03-05T11:18:33.295Z,5.20
2019-03-05T11:21:01.227Z,5.20
2019-03-05T11:23:29.072Z,5.30
2019-03-05T11:25:57.034Z,5.30
2019-03-05T11:28:24.971Z,5.30
2019-03-05T11:30:52.904Z,5.40
2019-03-05T11:33:20.852Z,5.50
2019-03-05T11:35:48.659Z,5.60
2019-03-05T11:38:16.633Z,5.80
2019-03-05T11:40:44.656Z,5.90
2019-03-05T11:43:12.938Z,5.90
2019-03-05T11:45:41.430Z,6.10
2019-03-05T11:48:09.348Z,6.20
2019-03-05T11:50:37.177Z,6.30
2019-03-05T11:53:05.114Z,6.30
2019-03-05T11:55:34.617Z,6.40
2019-03-05T11:58:21.478Z,6.40
2019-03-05T12:01:09.669Z,6.50
2019-03-05T12:03:37.608Z,6.60
2019-03-05T12:06:05.590Z,6.60
2019-03-05T12:08:33.439Z,6.70
2019-03-05T12:11:01.285Z,6.70
2019-03-05T12:13:29.193Z,6.70
2019-03-05T12:15:57.146Z,6.70
2019-03-05T12:18:25.521Z,6.80
2019-03-05T12:20:53.608Z,6.80
2019-03-05T12:23:21.466Z,6.80
2019-03-05T12:25:49.333Z,6.90
2019-03-05T12:28:17.230Z,7.00
2019-03-05T12:30:45.289Z,7.00
2019-03-05T12:33:13.249Z,7.00
2019-03-05T12:35:41.123Z,7.00
2019-03-05T12:38:09.037Z,7.10
2019-03-05T12:40:36.902Z,7.20
2019-03-05T12:43:05.914Z,7.30
2019-03-05T12:45:33.899Z,7.40
2019-03-05T12:48:01.936Z,7.40
2019-03-05T12:50:30.281Z,7.50
2019-03-05T12:52:58.255Z,7.60
2019-03-05T12:55:26.178Z,7.60
2019-03-05T12:57:54.000Z,7.70
2019-03-05T13:00:24.576Z,7.60
2019-03-05T13:02:52.486Z,7.70
2019-03-05T13:05:20.477Z,7.70
2019-03-05T13:07:48.503Z,7.80
2019-03-05T13:10:18.213Z,7.80
2019-03-05T13:12:46.075Z,7.90
2019-03-05T13:15:14.030Z,8.00
2019-03-05T13:17:41.984Z,8.10
2019-03-05T13:20:10.092Z,8.20
2019-03-05T13:22:38.108Z,8.10
2019-03-05T13:25:05.971Z,8.20
2019-03-05T13:27:33.914Z,8.20
2019-03-05T13:30:02.213Z,8.30
2019-03-05T13:32:30.133Z,8.30
2019-03-05T13:34:58.131Z,8.30
2019-03-05T13:37:28.479Z,8.30
2019-03-05T13:39:58.148Z,8.30
2019-03-05T13:42:29.103Z,8.30
2019-03-05T13:44:57.200Z,8.30
2019-03-05T13:47:25.081Z,8.30
2019-03-05T13:49:58.737Z,8.40
2019-03-05T13:52:23.119Z,8.30
2019-03-05T13:54:51.092Z,8.30
2019-03-05T13:57:19.572Z,8.30
2019-03-05T13:59:47.942Z,8.30
2019-03-05T14:02:15.923Z,8.30
2019-03-05T14:04:43.805Z,8.20
2019-03-05T14:07:11.765Z,8.10
2019-03-05T14:09:39.817Z,8.10
2019-03-05T14:12:07.862Z,8.10
2019-03-05T14:14:36.810Z,8.20
2019-03-05T14:17:17.795Z,8.40
2019-03-05T14:19:45.850Z,8.60
2019-03-05T14:22:13.924Z,8.80
2019-03-05T14:24:42.014Z,8.80
2019-03-05T14:27:09.879Z,8.80
2019-03-05T14:29:37.989Z,8.80
2019-03-05T14:32:06.057Z,8.70
2019-03-05T14:34:34.107Z,8.70
2019-03-05T14:37:02.674Z,8.60
2019-03-05T14:39:32.655Z,8.50
2019-03-05T14:42:00.626Z,8.50
2019-03-05T14:44:39.385Z,8.50
2019-03-05T14:46:58.430Z,8.40
2019-03-05T14:49:26.495Z,8.30
2019-03-05T14:51:54.606Z,8.30
2019-03-05T14:54:23.054Z,8.30
2019-03-05T14:56:51.008Z,8.30
2019-03-05T14:59:19.042Z,8.40
2019-03-05T15:01:46.995Z,9.00
2019-03-05T15:04:15.007Z,9.90
2019-03-05T15:06:42.969Z,10.90
2019-03-05T15:09:10.887Z,11.80
2019-03-05T15:11:39.140Z,12.00
2019-03-05T15:14:06.992Z,12.00
2019-03-05T15:16:35.321Z,11.70
2019-03-05T15:19:03.289Z,11.20
2019-03-05T15:21:31.198Z,10.60
2019-03-05T15:23:59.281Z,10.10
2019-03-05T15:26:27.191Z,9.80
2019-03-05T15:28:56.560Z,9.50
2019-03-05T15:31:24.858Z,9.20
2019-03-05T15:33:52.813Z,9.00
2019-03-05T15:36:23.978Z,8.90
2019-03-05T15:38:50.495Z,8.80
2019-03-05T15:41:18.807Z,8.80
2019-03-05T15:43:46.742Z,8.80
2019-03-05T15:46:14.742Z,8.90
2019-03-05T15:48:42.685Z,9.00
2019-03-05T15:51:10.527Z,9.10
2019-03-05T15:53:38.450Z,9.00
2019-03-05T15:56:06.314Z,8.80
2019-03-05T15:58:34.500Z,8.60
2019-03-05T16:01:02.432Z,8.30
2019-03-05T16:03:30.299Z,8.20
2019-03-05T16:05:58.832Z,8.10
2019-03-05T16:08:26.908Z,8.00
2019-03-05T16:10:58.451Z,7.90
2019-03-05T16:13:24.648Z,7.80
2019-03-05T16:15:52.570Z,7.70
2019-03-05T16:18:20.522Z,7.70
2019-03-05T16:20:48.418Z,7.60
2019-03-05T16:23:16.391Z,7.50
2019-03-05T16:25:46.305Z,7.40
2019-03-05T16:28:14.527Z,7.40
2019-03-05T16:31:12.679Z,7.30
2019-03-05T16:34:03.151Z,7.20
2019-03-05T16:36:49.197Z,7.20
2019-03-05T16:39:27.254Z,7.10
2019-03-05T16:42:07.822Z,7.10
2019-03-05T16:44:51.052Z,7.10
2019-03-05T16:47:36.673Z,7.10
2019-03-05T16:50:13.166Z,7.00
2019-03-05T16:52:59.128Z,7.00
2019-03-05T16:55:42.307Z,7.00
2019-03-05T16:58:27.932Z,7.00
2019-03-05T17:01:14.293Z,6.90
2019-03-05T17:04:05.092Z,6.90
2019-03-05T17:06:54.720Z,6.90
2019-03-05T17:09:33.243Z,6.80
2019-03-05T17:12:01.169Z,6.70
2019-03-05T17:14:29.150Z,6.70
2019-03-05T17:16:57.070Z,6.60
2019-03-05T17:19:24.987Z,6.50
2019-03-05T17:21:53.183Z,6.40
2019-03-05T17:24:21.536Z,6.30
2019-03-05T17:26:49.495Z,6.30
2019-03-05T17:29:17.463Z,6.20
2019-03-05T17:31:45.421Z,6.10
2019-03-05T17:34:13.375Z,6.00
2019-03-05T17:36:41.253Z,5.90
2019-03-05T17:39:11.656Z,5.90
2019-03-05T17:41:39.577Z,5.80
2019-03-05T17:44:07.514Z,5.80
2019-03-05T17:46:35.465Z,5.70
2019-03-05T17:49:03.978Z,5.60
2019-03-05T17:51:31.848Z,5.60
2019-03-05T17:53:59.774Z,5.60
2019-03-05T17:56:27.758Z,5.50
2019-03-05T17:58:55.688Z,5.40
2019-03-05T18:01:23.915Z,5.40
2019-03-05T18:03:51.960Z,5.40
2019-03-05T18:06:19.867Z,5.30
2019-03-05T18:08:47.738Z,5.30
2019-03-05T18:11:15.670Z,5.30
2019-03-05T18:13:44.275Z,5.30
2019-03-05T18:16:12.209Z,5.20
2019-03-05T18:18:40.169Z,5.20
2019-03-05T18:21:08.104Z,5.20
2019-03-05T18:23:36.079Z,5.20
2019-03-05T18:26:03.932Z,5.20
2019-03-05T18:28:31.883Z,5.20
2019-03-05T18:30:59.840Z,5.10
2019-03-05T18:33:27.893Z,5.10
2019-03-05T18:35:56.230Z,5.10
2019-03-05T18:38:24.244Z,5.10
2019-03-05T18:40:52.172Z,5.10
2019-03-05T18:43:20.120Z,5.00
2019-03-05T18:45:48.095Z,5.00
2019-03-05T18:48:16.133Z,5.00
2019-03-05T18:50:44.087Z,4.90
2019-03-05T18:53:12.332Z,5.00
2019-03-05T18:55:40.340Z,4.90
2019-03-05T18:58:08.326Z,4.90
2019-03-05T19:00:36.187Z,4.80
2019-03-05T19:03:04.228Z,4.80
2019-03-05T19:05:32.105Z,4.90
2019-03-05T19:07:59.968Z,4.80
2019-03-05T19:10:27.967Z,4.80
2019-03-05T19:12:55.919Z,4.70
2019-03-05T19:15:23.874Z,4.70
2019-03-05T19:17:51.873Z,4.70
2019-03-05T19:20:19.741Z,4.60
2019-03-05T19:22:47.688Z,4.50
2019-03-05T19:25:15.680Z,4.50
2019-03-05T19:27:43.608Z,4.50
2019-03-05T19:30:11.590Z,4.40
2019-03-05T19:32:39.820Z,4.40
2019-03-05T19:35:07.790Z,4.30
2019-03-05T19:37:35.746Z,4.30
2019-03-05T19:40:03.687Z,4.30
2019-03-05T19:42:31.600Z,4.20
2019-03-05T19:44:59.595Z,4.20
2019-03-05T19:47:27.545Z,4.10
2019-03-05T19:49:55.412Z,4.10
2019-03-05T19:52:23.680Z,4.10
2019-03-05T19:54:51.663Z,4.10
2019-03-05T19:57:19.632Z,4.00
2019-03-05T19:59:47.595Z,4.00
2019-03-05T20:02:15.673Z,4.00
2019-03-05T20:04:43.613Z,4.00
2019-03-05T20:07:11.735Z,3.90
2019-03-05T20:09:39.665Z,3.90
2019-03-05T20:12:07.715Z,3.90
2019-03-05T20:14:35.752Z,3.80
2019-03-05T20:17:04.312Z,3.80
2019-03-05T20:19:32.310Z,3.80
2019-03-05T20:22:00.217Z,3.80
2019-03-05T20:24:28.472Z,3.80
2019-03-05T20:26:56.440Z,3.70
2019-03-05T20:29:24.752Z,3.70
2019-03-05T20:31:52.800Z,3.60
2019-03-05T20:34:20.649Z,3.70
2019-03-05T20:36:48.623Z,3.70
2019-03-05T20:39:16.631Z,3.70
2019-03-05T20:41:45.532Z,3.70
2019-03-05T20:44:13.593Z,3.70
2019-03-05T20:46:41.590Z,3.80
2019-03-05T20:49:09.628Z,3.80
2019-03-05T20:51:37.738Z,3.80
2019-03-05T20:54:05.831Z,3.80
2019-03-05T20:56:33.781Z,3.80
2019-03-05T20:59:01.696Z,3.70
2019-03-05T21:01:29.651Z,3.80
2019-03-05T21:03:57.581Z,3.90
2019-03-05T21:06:25.657Z,3.90
2019-03-05T21:08:53.596Z,3.80
2019-03-05T21:11:21.632Z,3.90
2019-03-05T21:13:49.664Z,3.90
2019-03-05T21:16:17.572Z,3.90
2019-03-05T21:18:45.704Z,3.80
2019-03-05T21:21:13.725Z,3.90
2019-03-05T21:23:41.800Z,3.90
2019-03-05T21:26:09.851Z,3.90
2019-03-05T21:28:37.882Z,3.80
2019-03-05T21:31:06.365Z,3.80
2019-03-05T21:33:34.214Z,3.80
2019-03-05T21:36:02.084Z,3.80
2019-03-05T21:38:30.086Z,3.80
2019-03-05T21:40:58.066Z,3.80
2019-03-05T21:43:26.147Z,3.80
2019-03-05T21:45:54.188Z,3.80
2019-03-05T21:48:22.034Z,3.80
2019-03-05T21:50:50.017Z,3.80
2019-03-05T21:53:18.034Z,3.80
2019-03-05T21:55:46.009Z,3.90
2019-03-05T21:58:14.030Z,3.90
2019-03-05T22:00:42.121Z,3.90
2019-03-05T22:03:10.187Z,3.90
2019-03-05T22:05:38.480Z,4.00
2019-03-05T22:08:06.443Z,3.90
2019-03-05T22:10:34.679Z,4.00
2019-03-05T22:13:02.636Z,4.00
2019-03-05T22:15:30.633Z,4.00
2019-03-05T22:17:58.725Z,4.00
2019-03-05T22:20:27.265Z,4.00
2019-03-05T22:22:55.146Z,4.10
2019-03-05T22:25:22.984Z,4.10
2019-03-05T22:27:50.957Z,4.00
2019-03-05T22:30:18.813Z,4.00
2019-03-05T22:32:46.664Z,4.10
2019-03-05T22:35:14.602Z,4.10
2019-03-05T22:37:42.962Z,4.10
2019-03-05T22:40:10.878Z,4.10
2019-03-05T22:42:38.852Z,4.10
2019-03-05T22:45:06.890Z,4.10
2019-03-05T22:47:34.954Z,4.20
2019-03-05T22:50:03.179Z,4.20
2019-03-05T22:52:31.113Z,4.20
2019-03-05T22:54:59.064Z,4.20
2019-03-05T22:57:27.011Z,4.20
2019-03-05T22:59:55.237Z,4.30
2019-03-05T23:02:23.276Z,4.30
2019-03-05T23:04:51.249Z,4.30
2019-03-05T23:07:19.179Z,4.30
2019-03-05T23:09:48.493Z,4.30
2019-03-05T23:12:17.064Z,4.30
2019-03-05T23:14:44.950Z,4.40
2019-03-05T23:17:13.748Z,4.40
2019-03-05T23:19:41.676Z,4.50
2019-03-05T23:22:09.633Z,4.50
2019-03-05T23:24:37.515Z,4.50
2019-03-05T23:27:05.431Z,4.60
2019-03-05T23:29:51.356Z,4.60
2019-03-05T23:32:19.258Z,4.60
2019-03-05T23:34:47.263Z,4.60
2019-03-05T23:37:15.170Z,4.60
2019-03-05T23:39:43.321Z,4.60
2019-03-05T23:42:11.202Z,4.70
2019-03-05T23:44:39.185Z,4.70
2019-03-05T23:47:07.159Z,4.80
2019-03-05T23:49:35.196Z,4.80
2019-03-05T23:52:03.450Z,4.90
2019-03-05T23:54:31.474Z,4.90
2019-03-05T23:56:59.394Z,4.90
2019-03-05T23:59:27.279Z,4.90
